Friday, April 27, 2018, 6:37 AM GMT
Back to Local

CYZX, Greenwood, N. S.

Location: , , Canada Lat: 44.983
Local Time: 6:37 AM GMT ( 6:37 GMT) Lon: -64.917
Time Zone: GMT Elev: 91 ft

Show me the last for .
Show Coded

Time T Td Feel RH Dir Speed Gust Alt SLP Vis Weather Sky Remarks
2018-04-27 02:13 57 54 - 87 220° 20 29 29.67 29.67 10 OVC020 None
2018-04-27 01:00 59 55 - 87 210° 17 25 29.64 29.65 8 -RA OVC020 None
2018-04-27 00:27 59 57 - 93 200° 12 - 29.63 29.63 8 -RA OVC018 None
2018-04-26 23:00 61 57 - 87 190° 10 - 29.62 29.62 8 -RA SCT018 OVC025 None
2018-04-26 22:00 61 57 - 87 200° 9 18 29.63 29.63 8 -RA OVC016 None
2018-04-26 21:00 61 57 - 87 200° 15 21 29.62 29.62 15 -RA BKN024 BKN030 None
2018-04-26 20:00 61 57 - 87 200° 12 17 29.61 29.61 15 -RA BKN016 None
2018-04-26 19:20 61 57 - 87 180° 16 24 29.61 29.61 5 -RA BR SCT013 BKN016 None
2018-04-26 19:00 61 57 - 87 190° 14 22 29.61 29.61 15 SCT013 BKN026 None
2018-04-26 18:08 57 55 - 93 170° 12 31 29.63 29.63 15 BKN030 BKN140 Pressure rising rapidly
2018-04-26 18:00 57 55 - 93 160° 21 29 29.62 29.62 8 RA BKN024 BKN030 None
2018-04-26 17:23 61 57 - 87 170° 14 24 29.65 29.65 3 RA BR BKN016 OVC030 None
2018-04-26 17:00 61 57 - 87 160° 16 25 29.65 29.66 10 OVC016 None
2018-04-26 16:00 59 57 - 93 160° 20 28 29.70 29.70 10 -RA FEW014 OVC023 None
2018-04-26 15:00 59 55 - 87 160° 20 30 29.72 29.72 6 -RA BR BKN018 OVC030 None
2018-04-26 14:00 59 55 - 87 160° 22 32 29.76 29.76 4 -RA BR BKN018 OVC030 None
2018-04-26 13:00 59 55 - 87 140° 23 33 29.79 29.79 3 -RA BR SCT014 OVC020 None
2018-04-26 12:00 57 55 - 93 150° 25 39 29.83 29.83 6 -RA BR SCT013 OVC024 None
2018-04-26 11:13 57 52 - 82 150° 16 23 29.85 29.85 12 -RA SCT012 OVC016 None
2018-04-26 11:00 57 52 - 82 150° 20 25 29.86 29.86 12 -RA SCT016 OVC028 None
2018-04-26 10:00 55 52 - 87 150° 15 25 29.87 29.88 10 -RA SCT020 OVC110 None
2018-04-26 09:36 55 52 - 87 150° 14 23 29.89 29.89 8 -RA BKN040 OVC070 None
2018-04-26 09:00 55 52 - 87 150° 16 29 29.90 29.90 10 -DZ SCT050 OVC110 None
2018-04-26 08:00 55 54 - 93 150° 14 - 29.94 29.94 15 SCT050 OVC120 None
2018-04-26 07:00 54 52 - 93 140° 13 20 29.98 29.98 15 SCT020 OVC050 None

Support USWX by starting your Amazon purchase here.